createdAt,value
2016-11-17T00:00:04.804Z,8.6
2016-11-17T00:05:04.731Z,8.5
2016-11-17T00:10:04.214Z,8.6
2016-11-17T00:15:04.010Z,8.5
2016-11-17T00:20:04.787Z,8.6
2016-11-17T00:25:04.154Z,8.6
2016-11-17T00:30:04.092Z,8.6
2016-11-17T00:35:04.700Z,8.6
2016-11-17T00:40:04.822Z,8.6
2016-11-17T00:45:04.359Z,8.8
2016-11-17T00:50:04.729Z,8.8
2016-11-17T00:55:04.678Z,8.8
2016-11-17T01:00:04.408Z,8.8
2016-11-17T01:05:03.911Z,8.8
2016-11-17T01:10:04.604Z,8.8
2016-11-17T01:15:03.813Z,8.8
2016-11-17T01:20:04.011Z,8.6
2016-11-17T01:25:04.248Z,8.6
2016-11-17T01:30:04.774Z,8.8
2016-11-17T01:35:04.267Z,8.6
2016-11-17T01:40:04.065Z,8.6
2016-11-17T01:45:04.247Z,8.6
2016-11-17T01:50:04.418Z,8.5
2016-11-17T01:55:04.186Z,8.5
2016-11-17T02:00:03.926Z,8.5
2016-11-17T02:05:04.032Z,8.5
2016-11-17T02:10:04.531Z,8.5
2016-11-17T02:15:04.037Z,8.5
2016-11-17T02:20:03.983Z,8.6
2016-11-17T02:25:03.808Z,8.5
2016-11-17T02:30:04.278Z,8.5
2016-11-17T02:35:04.447Z,8.5
2016-11-17T02:40:04.705Z,8.5
2016-11-17T02:45:03.718Z,8.3
2016-11-17T02:50:04.513Z,8.3
2016-11-17T02:55:04.674Z,8.1
2016-11-17T03:00:04.950Z,8.1
2016-11-17T03:05:04.542Z,8.1
2016-11-17T03:10:04.162Z,8.1
2016-11-17T03:15:04.394Z,8.0
2016-11-17T03:20:04.380Z,8.1
2016-11-17T03:25:04.442Z,8.1
2016-11-17T03:30:04.838Z,8.1
2016-11-17T03:35:03.996Z,8.1
2016-11-17T03:40:04.453Z,8.1
2016-11-17T03:45:03.979Z,8.0
2016-11-17T03:50:04.372Z,8.0
2016-11-17T03:55:04.344Z,8.0
2016-11-17T04:00:05.011Z,7.6
2016-11-17T04:05:04.581Z,7.6
2016-11-17T04:10:04.503Z,7.9
2016-11-17T04:15:04.789Z,7.9
2016-11-17T04:20:03.956Z,7.6
2016-11-17T04:25:04.511Z,7.9
2016-11-17T04:30:03.847Z,7.9
2016-11-17T04:35:04.516Z,8.1
2016-11-17T04:40:04.209Z,7.9
2016-11-17T04:45:04.480Z,7.9
2016-11-17T04:50:04.680Z,7.6
2016-11-17T04:55:03.900Z,7.9
2016-11-17T05:00:04.351Z,7.9
2016-11-17T05:05:04.667Z,7.9
2016-11-17T05:10:04.673Z,7.6
2016-11-17T05:15:03.656Z,7.6
2016-11-17T05:20:04.447Z,7.6
2016-11-17T05:25:04.615Z,7.6
2016-11-17T05:30:04.362Z,7.6
2016-11-17T05:35:04.885Z,7.6
2016-11-17T05:40:04.057Z,7.6
2016-11-17T05:45:04.287Z,7.6
2016-11-17T05:50:03.622Z,7.6
2016-11-17T06:00:05.708Z,7.9
2016-11-17T06:05:04.259Z,7.9
2016-11-17T06:10:03.654Z,7.6
2016-11-17T06:15:04.679Z,7.9
2016-11-17T06:20:03.836Z,7.9
2016-11-17T06:25:04.551Z,8.0
2016-11-17T06:30:04.401Z,8.0
2016-11-17T06:35:05.292Z,8.0
2016-11-17T06:40:04.546Z,8.0
2016-11-17T06:45:04.789Z,8.0
2016-11-17T06:50:04.685Z,7.9
2016-11-17T06:55:04.447Z,7.9
2016-11-17T07:00:04.604Z,7.5
2016-11-17T07:05:04.032Z,7.5
2016-11-17T07:10:04.596Z,7.6
2016-11-17T07:15:04.625Z,7.6
2016-11-17T07:20:04.484Z,7.9
2016-11-17T07:25:04.617Z,7.9
2016-11-17T07:30:04.530Z,7.9
2016-11-17T07:35:04.957Z,8.0
2016-11-17T07:40:04.610Z,8.0
2016-11-17T07:45:03.769Z,8.1
2016-11-17T07:50:04.354Z,8.1
2016-11-17T07:55:03.873Z,8.3
2016-11-17T08:00:04.415Z,8.5
2016-11-17T08:05:04.667Z,8.5
2016-11-17T08:10:04.022Z,8.5
2016-11-17T08:15:03.943Z,8.6
2016-11-17T08:20:04.519Z,8.5
2016-11-17T08:25:04.772Z,8.6
2016-11-17T08:30:04.712Z,8.6
2016-11-17T08:35:04.439Z,8.6
2016-11-17T08:40:03.954Z,8.8
2016-11-17T08:45:04.432Z,8.8
2016-11-17T08:50:04.107Z,9.0
2016-11-17T08:55:04.602Z,9.0
2016-11-17T09:00:03.949Z,9.3
2016-11-17T09:05:04.551Z,9.8
2016-11-17T09:10:04.470Z,9.8
2016-11-17T09:15:04.582Z,9.8
2016-11-17T09:20:04.309Z,10.1
2016-11-17T09:25:03.731Z,10.0
2016-11-17T09:30:04.146Z,10.1
2016-11-17T09:35:03.847Z,10.3
2016-11-17T09:40:04.615Z,10.8
2016-11-17T09:45:04.228Z,10.6
2016-11-17T09:50:04.018Z,11.1
2016-11-17T09:55:04.622Z,11.6
2016-11-17T10:00:04.569Z,11.1
2016-11-17T10:05:04.710Z,10.6
2016-11-17T10:10:04.303Z,10.8
2016-11-17T10:15:04.436Z,11.1
2016-11-17T10:20:04.808Z,11.3
2016-11-17T10:25:04.157Z,11.3
2016-11-17T10:30:04.552Z,11.1
2016-11-17T10:35:03.919Z,11.1
2016-11-17T10:40:04.383Z,11.0
2016-11-17T10:45:04.490Z,11.0
2016-11-17T10:50:03.826Z,11.6
2016-11-17T10:55:04.314Z,11.6
2016-11-17T11:00:04.445Z,11.6
2016-11-17T11:05:03.950Z,11.3
2016-11-17T11:10:04.180Z,11.3
2016-11-17T11:15:04.493Z,11.6
2016-11-17T11:20:04.344Z,11.3
2016-11-17T11:25:03.845Z,11.1
2016-11-17T11:30:04.389Z,10.8
2016-11-17T11:35:04.047Z,10.8
2016-11-17T11:40:03.879Z,10.8
2016-11-17T11:45:04.218Z,10.8
2016-11-17T11:50:04.523Z,10.8
2016-11-17T11:55:04.212Z,10.8
2016-11-17T12:00:04.161Z,10.8
2016-11-17T12:05:03.863Z,10.8
2016-11-17T12:10:03.895Z,10.6
2016-11-17T12:15:04.868Z,10.5
2016-11-17T12:20:04.362Z,10.6
2016-11-17T12:25:04.067Z,10.6
2016-11-17T12:30:04.553Z,10.8
2016-11-17T12:35:04.461Z,10.5
2016-11-17T12:40:04.309Z,10.5
2016-11-17T12:45:03.870Z,10.5
2016-11-17T12:50:04.372Z,10.5
2016-11-17T12:55:04.161Z,10.5
2016-11-17T13:00:04.722Z,10.5
2016-11-17T13:05:04.350Z,10.5
2016-11-17T13:10:03.909Z,10.5
2016-11-17T13:15:04.667Z,10.5
2016-11-17T13:20:04.322Z,10.5
2016-11-17T13:25:04.455Z,10.5
2016-11-17T13:30:03.767Z,10.3
2016-11-17T13:35:04.102Z,9.6
2016-11-17T13:40:04.787Z,9.6
2016-11-17T13:45:04.381Z,10.0
2016-11-17T13:50:04.792Z,10.0
2016-11-17T13:55:04.231Z,9.8
2016-11-17T14:00:03.824Z,9.8
2016-11-17T14:05:04.544Z,9.6
2016-11-17T14:10:04.033Z,9.8
2016-11-17T14:15:04.099Z,10.0
2016-11-17T14:20:04.438Z,10.0
2016-11-17T14:25:04.728Z,9.8
2016-11-17T14:30:04.016Z,9.8
2016-11-17T14:35:04.705Z,9.8
2016-11-17T14:40:04.605Z,9.5
2016-11-17T14:45:03.932Z,9.6
2016-11-17T14:50:03.766Z,9.5
2016-11-17T14:55:04.418Z,9.5
2016-11-17T15:00:04.561Z,9.6
2016-11-17T15:05:04.276Z,9.6
2016-11-17T15:10:04.642Z,9.6
2016-11-17T15:15:04.470Z,9.6
2016-11-17T15:20:03.908Z,9.5
2016-11-17T15:25:04.180Z,9.5
2016-11-17T15:30:04.441Z,9.6
2016-11-17T15:35:03.898Z,9.8
2016-11-17T15:40:04.589Z,9.6
2016-11-17T15:45:03.990Z,9.8
2016-11-17T15:50:03.986Z,9.8
2016-11-17T15:55:04.473Z,9.8
2016-11-17T16:00:04.566Z,9.8
2016-11-17T16:05:04.446Z,9.8
2016-11-17T16:10:04.120Z,10.0
2016-11-17T16:15:04.348Z,10.0
2016-11-17T16:20:04.558Z,10.1
2016-11-17T16:25:04.091Z,10.1
2016-11-17T16:30:04.049Z,10.3
2016-11-17T16:35:04.902Z,10.5
2016-11-17T16:40:04.297Z,10.5
2016-11-17T16:45:04.601Z,10.6
2016-11-17T16:50:04.606Z,10.1
2016-11-17T16:55:04.060Z,10.1
2016-11-17T17:00:04.538Z,10.3
2016-11-17T17:05:03.757Z,10.5
2016-11-17T17:10:04.271Z,10.6
2016-11-17T17:15:04.806Z,10.5
2016-11-17T17:20:04.232Z,10.6
2016-11-17T17:25:03.752Z,10.8
2016-11-17T17:30:04.088Z,10.6
2016-11-17T17:35:04.126Z,10.1
2016-11-17T17:40:04.371Z,10.0
2016-11-17T17:45:04.015Z,10.1
2016-11-17T17:50:04.222Z,10.1
2016-11-17T17:55:04.814Z,10.3
2016-11-17T18:00:03.818Z,10.1
2016-11-17T18:05:04.437Z,10.1
2016-11-17T18:10:04.674Z,10.3
2016-11-17T18:15:03.959Z,10.1
2016-11-17T18:20:04.523Z,10.3
2016-11-17T18:25:04.311Z,10.1
2016-11-17T18:30:04.557Z,10.5
2016-11-17T18:35:04.728Z,10.1
2016-11-17T18:40:04.192Z,10.1
2016-11-17T18:45:04.144Z,10.1
2016-11-17T18:50:04.701Z,10.5
2016-11-17T18:55:04.810Z,10.6
2016-11-17T19:00:04.115Z,10.8
2016-11-17T19:05:04.332Z,10.8
2016-11-17T19:10:03.966Z,10.8
2016-11-17T19:15:04.710Z,10.8
2016-11-17T19:20:04.228Z,10.8
2016-11-17T19:25:04.346Z,10.6
2016-11-17T19:30:04.740Z,10.5
2016-11-17T19:35:04.135Z,10.6
2016-11-17T19:40:04.211Z,10.8
2016-11-17T19:45:04.186Z,10.8
2016-11-17T19:50:04.303Z,10.8
2016-11-17T19:55:04.554Z,10.8
2016-11-17T20:00:04.688Z,11.0
2016-11-17T20:05:04.684Z,11.1
2016-11-17T20:10:04.024Z,11.1
2016-11-17T20:15:04.208Z,11.1
2016-11-17T20:20:04.472Z,11.1
2016-11-17T20:25:04.382Z,11.1
2016-11-17T20:30:04.014Z,11.1
2016-11-17T20:35:04.321Z,11.3
2016-11-17T20:40:04.036Z,11.3
2016-11-17T20:45:04.320Z,11.3
2016-11-17T20:50:04.541Z,11.3
2016-11-17T20:55:04.647Z,11.3
2016-11-17T21:00:04.761Z,11.3
2016-11-17T21:05:04.458Z,11.6
2016-11-17T21:10:04.753Z,11.6
2016-11-17T21:15:03.831Z,11.6
2016-11-17T21:20:04.274Z,11.6
2016-11-17T21:25:04.417Z,11.6
2016-11-17T21:30:04.512Z,11.3
2016-11-17T21:35:03.960Z,11.3
2016-11-17T21:40:03.811Z,11.3
2016-11-17T21:45:03.929Z,11.3
2016-11-17T21:50:03.813Z,11.3
2016-11-17T21:55:04.506Z,11.3
2016-11-17T22:00:03.892Z,11.3
2016-11-17T22:05:04.544Z,11.3
2016-11-17T22:10:04.129Z,11.3
2016-11-17T22:15:03.971Z,11.3
2016-11-17T22:20:04.605Z,11.3
2016-11-17T22:25:04.258Z,11.3
2016-11-17T22:30:04.698Z,11.3
2016-11-17T22:35:03.989Z,11.3
2016-11-17T22:40:04.463Z,11.3
2016-11-17T22:45:04.711Z,11.3
2016-11-17T22:50:03.836Z,11.6
2016-11-17T22:55:04.583Z,11.3
2016-11-17T23:00:03.985Z,11.3
2016-11-17T23:05:04.650Z,11.3
2016-11-17T23:10:04.153Z,11.3
2016-11-17T23:15:04.108Z,11.1
2016-11-17T23:20:04.495Z,11.1
2016-11-17T23:25:04.252Z,7.9
2016-11-17T23:30:04.534Z,7.6
2016-11-17T23:35:04.038Z,7.5
2016-11-17T23:40:04.293Z,7.5
2016-11-17T23:45:03.979Z,7.5
2016-11-17T23:50:04.304Z,7.5
2016-11-17T23:55:03.943Z,7.5
